sensor_id;sensor_type;location;lat;lon;timestamp;temperature;humidity
69084;SHT31;56185;48.526;9.044;2023-08-06T00:00:35;16.50;84.86
69084;SHT31;56185;48.526;9.044;2023-08-06T00:03:00;16.44;84.76
69084;SHT31;56185;48.526;9.044;2023-08-06T00:05:25;16.56;83.94
69084;SHT31;56185;48.526;9.044;2023-08-06T00:07:51;16.53;83.93
69084;SHT31;56185;48.526;9.044;2023-08-06T00:10:17;16.53;83.84
69084;SHT31;56185;48.526;9.044;2023-08-06T00:12:43;16.50;84.15
69084;SHT31;56185;48.526;9.044;2023-08-06T00:15:08;16.49;83.96
69084;SHT31;56185;48.526;9.044;2023-08-06T00:17:34;16.51;83.93
69084;SHT31;56185;48.526;9.044;2023-08-06T00:20:00;16.43;83.66
69084;SHT31;56185;48.526;9.044;2023-08-06T00:22:25;16.23;84.56
69084;SHT31;56185;48.526;9.044;2023-08-06T00:24:51;16.19;84.96
69084;SHT31;56185;48.526;9.044;2023-08-06T00:27:16;16.06;85.30
69084;SHT31;56185;48.526;9.044;2023-08-06T00:29:41;15.99;85.79
69084;SHT31;56185;48.526;9.044;2023-08-06T00:32:06;15.92;84.89
69084;SHT31;56185;48.526;9.044;2023-08-06T00:34:32;15.95;85.24
69084;SHT31;56185;48.526;9.044;2023-08-06T00:36:57;15.92;85.20
69084;SHT31;56185;48.526;9.044;2023-08-06T00:39:22;15.77;85.81
69084;SHT31;56185;48.526;9.044;2023-08-06T00:41:47;15.83;85.02
69084;SHT31;56185;48.526;9.044;2023-08-06T00:44:12;15.83;85.20
69084;SHT31;56185;48.526;9.044;2023-08-06T00:46:38;15.66;84.88
69084;SHT31;56185;48.526;9.044;2023-08-06T00:49:04;15.51;84.35
69084;SHT31;56185;48.526;9.044;2023-08-06T00:51:30;15.57;84.72
69084;SHT31;56185;48.526;9.044;2023-08-06T00:53:55;15.58;84.28
69084;SHT31;56185;48.526;9.044;2023-08-06T00:56:21;15.51;84.67
69084;SHT31;56185;48.526;9.044;2023-08-06T00:58:46;15.50;83.99
69084;SHT31;56185;48.526;9.044;2023-08-06T01:01:12;15.48;83.34
69084;SHT31;56185;48.526;9.044;2023-08-06T01:03:37;15.50;82.81
69084;SHT31;56185;48.526;9.044;2023-08-06T01:06:02;15.37;83.79
69084;SHT31;56185;48.526;9.044;2023-08-06T01:08:38;15.27;83.84
69084;SHT31;56185;48.526;9.044;2023-08-06T01:11:26;15.26;83.96
69084;SHT31;56185;48.526;9.044;2023-08-06T01:14:02;15.23;83.84
69084;SHT31;56185;48.526;9.044;2023-08-06T01:16:30;15.17;83.92
69084;SHT31;56185;48.526;9.044;2023-08-06T01:18:58;15.28;83.17
69084;SHT31;56185;48.526;9.044;2023-08-06T01:21:23;15.20;83.26
69084;SHT31;56185;48.526;9.044;2023-08-06T01:23:48;15.08;84.08
69084;SHT31;56185;48.526;9.044;2023-08-06T01:26:30;15.02;83.31
69084;SHT31;56185;48.526;9.044;2023-08-06T01:29:41;15.10;83.48
69084;SHT31;56185;48.526;9.044;2023-08-06T01:32:11;15.02;83.69
69084;SHT31;56185;48.526;9.044;2023-08-06T01:34:39;14.93;83.95
69084;SHT31;56185;48.526;9.044;2023-08-06T01:37:08;14.85;84.64
69084;SHT31;56185;48.526;9.044;2023-08-06T01:39:34;14.92;84.20
69084;SHT31;56185;48.526;9.044;2023-08-06T01:41:59;14.92;84.27
69084;SHT31;56185;48.526;9.044;2023-08-06T01:44:24;14.87;83.67
69084;SHT31;56185;48.526;9.044;2023-08-06T01:46:49;14.72;84.46
69084;SHT31;56185;48.526;9.044;2023-08-06T01:49:15;14.69;84.87
69084;SHT31;56185;48.526;9.044;2023-08-06T01:51:40;14.73;84.84
69084;SHT31;56185;48.526;9.044;2023-08-06T01:54:05;14.68;84.73
69084;SHT31;56185;48.526;9.044;2023-08-06T01:56:30;14.79;84.15
69084;SHT31;56185;48.526;9.044;2023-08-06T01:58:56;14.69;84.72
69084;SHT31;56185;48.526;9.044;2023-08-06T02:01:21;14.55;84.70
69084;SHT31;56185;48.526;9.044;2023-08-06T02:03:46;14.55;84.34
69084;SHT31;56185;48.526;9.044;2023-08-06T02:06:12;14.45;84.70
69084;SHT31;56185;48.526;9.044;2023-08-06T02:08:37;14.61;84.54
69084;SHT31;56185;48.526;9.044;2023-08-06T02:11:02;14.76;84.13
69084;SHT31;56185;48.526;9.044;2023-08-06T02:13:28;14.63;83.48
69084;SHT31;56185;48.526;9.044;2023-08-06T02:15:53;14.58;84.13
69084;SHT31;56185;48.526;9.044;2023-08-06T02:18:18;14.52;84.50
69084;SHT31;56185;48.526;9.044;2023-08-06T02:20:43;14.55;83.59
69084;SHT31;56185;48.526;9.044;2023-08-06T02:23:09;14.46;83.58
69084;SHT31;56185;48.526;9.044;2023-08-06T02:25:35;14.48;83.30
69084;SHT31;56185;48.526;9.044;2023-08-06T02:28:00;14.45;83.07
69084;SHT31;56185;48.526;9.044;2023-08-06T02:30:25;14.39;83.29
69084;SHT31;56185;48.526;9.044;2023-08-06T02:32:51;14.45;83.38
69084;SHT31;56185;48.526;9.044;2023-08-06T02:35:16;14.36;84.05
69084;SHT31;56185;48.526;9.044;2023-08-06T02:37:41;14.38;84.37
69084;SHT31;56185;48.526;9.044;2023-08-06T02:40:07;14.38;83.74
69084;SHT31;56185;48.526;9.044;2023-08-06T02:42:32;14.38;84.31
69084;SHT31;56185;48.526;9.044;2023-08-06T02:44:58;14.49;83.96
69084;SHT31;56185;48.526;9.044;2023-08-06T02:47:23;14.59;84.05
69084;SHT31;56185;48.526;9.044;2023-08-06T02:49:48;14.51;84.01
69084;SHT31;56185;48.526;9.044;2023-08-06T02:52:13;14.55;85.05
69084;SHT31;56185;48.526;9.044;2023-08-06T02:54:38;14.69;83.15
69084;SHT31;56185;48.526;9.044;2023-08-06T02:57:05;14.63;83.83
69084;SHT31;56185;48.526;9.044;2023-08-06T02:59:31;14.68;83.45
69084;SHT31;56185;48.526;9.044;2023-08-06T03:01:56;14.62;82.91
69084;SHT31;56185;48.526;9.044;2023-08-06T03:04:21;14.49;84.72
69084;SHT31;56185;48.526;9.044;2023-08-06T03:06:46;14.44;84.51
69084;SHT31;56185;48.526;9.044;2023-08-06T03:09:11;14.42;84.75
69084;SHT31;56185;48.526;9.044;2023-08-06T03:12:03;14.51;83.96
69084;SHT31;56185;48.526;9.044;2023-08-06T03:14:41;14.54;83.79
69084;SHT31;56185;48.526;9.044;2023-08-06T03:17:06;14.51;84.32
69084;SHT31;56185;48.526;9.044;2023-08-06T03:19:31;14.62;83.88
69084;SHT31;56185;48.526;9.044;2023-08-06T03:21:56;14.65;83.76
69084;SHT31;56185;48.526;9.044;2023-08-06T03:24:22;14.55;84.41
69084;SHT31;56185;48.526;9.044;2023-08-06T03:26:47;14.61;83.69
69084;SHT31;56185;48.526;9.044;2023-08-06T03:29:12;14.65;83.98
69084;SHT31;56185;48.526;9.044;2023-08-06T03:31:37;14.65;83.99
69084;SHT31;56185;48.526;9.044;2023-08-06T03:34:02;14.79;83.74
69084;SHT31;56185;48.526;9.044;2023-08-06T03:36:28;14.73;83.68
69084;SHT31;56185;48.526;9.044;2023-08-06T03:38:53;14.77;83.68
69084;SHT31;56185;48.526;9.044;2023-08-06T03:41:18;14.77;83.36
69084;SHT31;56185;48.526;9.044;2023-08-06T03:43:43;15.08;82.29
69084;SHT31;56185;48.526;9.044;2023-08-06T03:46:09;15.08;81.70
69084;SHT31;56185;48.526;9.044;2023-08-06T03:48:34;15.17;81.44
69084;SHT31;56185;48.526;9.044;2023-08-06T03:50:59;15.19;80.71
69084;SHT31;56185;48.526;9.044;2023-08-06T03:53:24;15.17;80.34
69084;SHT31;56185;48.526;9.044;2023-08-06T03:55:50;15.10;80.41
69084;SHT31;56185;48.526;9.044;2023-08-06T03:58:15;14.99;80.72
69084;SHT31;56185;48.526;9.044;2023-08-06T04:00:40;14.92;81.85
69084;SHT31;56185;48.526;9.044;2023-08-06T04:03:05;14.79;82.35
69084;SHT31;56185;48.526;9.044;2023-08-06T04:05:31;14.71;83.17
69084;SHT31;56185;48.526;9.044;2023-08-06T04:07:57;14.79;83.42
69084;SHT31;56185;48.526;9.044;2023-08-06T04:10:22;14.80;84.39
69084;SHT31;56185;48.526;9.044;2023-08-06T04:12:47;14.73;83.94
69084;SHT31;56185;48.526;9.044;2023-08-06T04:15:12;14.71;83.86
69084;SHT31;56185;48.526;9.044;2023-08-06T04:17:38;14.72;83.54
69084;SHT31;56185;48.526;9.044;2023-08-06T04:20:03;14.66;83.72
69084;SHT31;56185;48.526;9.044;2023-08-06T04:22:29;14.69;83.47
69084;SHT31;56185;48.526;9.044;2023-08-06T04:24:54;14.76;83.82
69084;SHT31;56185;48.526;9.044;2023-08-06T04:27:20;14.71;83.26
69084;SHT31;56185;48.526;9.044;2023-08-06T04:29:45;14.76;82.73
69084;SHT31;56185;48.526;9.044;2023-08-06T04:32:12;14.71;82.77
69084;SHT31;56185;48.526;9.044;2023-08-06T04:34:37;14.73;83.94
69084;SHT31;56185;48.526;9.044;2023-08-06T04:37:03;14.82;83.21
69084;SHT31;56185;48.526;9.044;2023-08-06T04:39:29;14.83;82.79
69084;SHT31;56185;48.526;9.044;2023-08-06T04:41:55;14.72;83.26
69084;SHT31;56185;48.526;9.044;2023-08-06T04:44:21;14.82;83.87
69084;SHT31;56185;48.526;9.044;2023-08-06T04:46:46;14.82;84.21
69084;SHT31;56185;48.526;9.044;2023-08-06T04:49:11;14.97;84.46
69084;SHT31;56185;48.526;9.044;2023-08-06T04:51:36;15.06;83.92
69084;SHT31;56185;48.526;9.044;2023-08-06T04:54:02;15.02;83.16
69084;SHT31;56185;48.526;9.044;2023-08-06T04:56:27;14.96;82.64
69084;SHT31;56185;48.526;9.044;2023-08-06T04:58:52;14.86;82.24
69084;SHT31;56185;48.526;9.044;2023-08-06T05:01:18;14.90;83.07
69084;SHT31;56185;48.526;9.044;2023-08-06T05:03:43;14.89;82.68
69084;SHT31;56185;48.526;9.044;2023-08-06T05:06:08;14.92;82.68
69084;SHT31;56185;48.526;9.044;2023-08-06T05:08:33;14.90;82.99
69084;SHT31;56185;48.526;9.044;2023-08-06T05:10:59;14.96;82.12
69084;SHT31;56185;48.526;9.044;2023-08-06T05:13:24;14.92;81.98
69084;SHT31;56185;48.526;9.044;2023-08-06T05:15:49;14.93;81.25
69084;SHT31;56185;48.526;9.044;2023-08-06T05:18:14;14.89;80.84
69084;SHT31;56185;48.526;9.044;2023-08-06T05:20:41;14.96;81.57
69084;SHT31;56185;48.526;9.044;2023-08-06T05:23:06;15.02;80.25
69084;SHT31;56185;48.526;9.044;2023-08-06T05:25:33;15.03;79.79
69084;SHT31;56185;48.526;9.044;2023-08-06T05:27:59;15.08;80.26
69084;SHT31;56185;48.526;9.044;2023-08-06T05:30:24;15.11;79.51
69084;SHT31;56185;48.526;9.044;2023-08-06T05:32:49;15.02;80.15
69084;SHT31;56185;48.526;9.044;2023-08-06T05:35:15;14.96;79.90
69084;SHT31;56185;48.526;9.044;2023-08-06T05:37:40;15.07;80.82
69084;SHT31;56185;48.526;9.044;2023-08-06T05:40:06;15.02;80.90
69084;SHT31;56185;48.526;9.044;2023-08-06T05:42:31;15.06;80.28
69084;SHT31;56185;48.526;9.044;2023-08-06T05:44:56;15.08;80.61
69084;SHT31;56185;48.526;9.044;2023-08-06T05:47:22;15.11;79.49
69084;SHT31;56185;48.526;9.044;2023-08-06T05:49:47;15.14;80.12
69084;SHT31;56185;48.526;9.044;2023-08-06T05:52:12;15.11;80.65
69084;SHT31;56185;48.526;9.044;2023-08-06T05:54:38;15.13;79.54
69084;SHT31;56185;48.526;9.044;2023-08-06T05:57:03;15.27;80.24
69084;SHT31;56185;48.526;9.044;2023-08-06T05:59:28;15.20;79.63
69084;SHT31;56185;48.526;9.044;2023-08-06T06:01:54;15.26;79.23
69084;SHT31;56185;48.526;9.044;2023-08-06T06:04:19;15.11;80.36
69084;SHT31;56185;48.526;9.044;2023-08-06T06:06:44;15.17;80.20
69084;SHT31;56185;48.526;9.044;2023-08-06T06:09:09;15.23;80.59
69084;SHT31;56185;48.526;9.044;2023-08-06T06:11:35;15.35;80.46
69084;SHT31;56185;48.526;9.044;2023-08-06T06:14:00;15.34;80.01
69084;SHT31;56185;48.526;9.044;2023-08-06T06:16:25;15.23;79.97
69084;SHT31;56185;48.526;9.044;2023-08-06T06:18:50;15.17;81.69
69084;SHT31;56185;48.526;9.044;2023-08-06T06:21:16;15.13;80.87
69084;SHT31;56185;48.526;9.044;2023-08-06T06:23:41;15.14;81.70
69084;SHT31;56185;48.526;9.044;2023-08-06T06:26:06;15.20;82.64
69084;SHT31;56185;48.526;9.044;2023-08-06T06:28:31;15.06;82.81
69084;SHT31;56185;48.526;9.044;2023-08-06T06:31:00;15.07;82.55
69084;SHT31;56185;48.526;9.044;2023-08-06T06:33:26;15.07;82.72
69084;SHT31;56185;48.526;9.044;2023-08-06T06:35:51;15.13;82.26
69084;SHT31;56185;48.526;9.044;2023-08-06T06:38:16;15.07;82.41
69084;SHT31;56185;48.526;9.044;2023-08-06T06:40:55;15.10;81.48
69084;SHT31;56185;48.526;9.044;2023-08-06T06:43:21;15.16;83.09
69084;SHT31;56185;48.526;9.044;2023-08-06T06:45:46;15.22;82.51
69084;SHT31;56185;48.526;9.044;2023-08-06T06:48:11;15.24;83.04
69084;SHT31;56185;48.526;9.044;2023-08-06T06:50:37;15.22;82.91
69084;SHT31;56185;48.526;9.044;2023-08-06T06:53:02;15.27;82.73
69084;SHT31;56185;48.526;9.044;2023-08-06T06:55:27;15.24;82.49
69084;SHT31;56185;48.526;9.044;2023-08-06T06:57:52;15.27;82.49
69084;SHT31;56185;48.526;9.044;2023-08-06T07:00:18;15.26;82.37
69084;SHT31;56185;48.526;9.044;2023-08-06T07:02:43;15.27;82.51
69084;SHT31;56185;48.526;9.044;2023-08-06T07:05:08;15.27;82.52
69084;SHT31;56185;48.526;9.044;2023-08-06T07:07:34;15.35;83.04
69084;SHT31;56185;48.526;9.044;2023-08-06T07:09:59;15.40;82.88
69084;SHT31;56185;48.526;9.044;2023-08-06T07:12:24;15.44;82.85
69084;SHT31;56185;48.526;9.044;2023-08-06T07:14:49;15.45;83.01
69084;SHT31;56185;48.526;9.044;2023-08-06T07:17:15;15.41;82.41
69084;SHT31;56185;48.526;9.044;2023-08-06T07:19:40;15.34;82.03
69084;SHT31;56185;48.526;9.044;2023-08-06T07:22:05;15.31;83.84
69084;SHT31;56185;48.526;9.044;2023-08-06T07:24:30;15.19;82.64
69084;SHT31;56185;48.526;9.044;2023-08-06T07:26:56;15.16;83.62
69084;SHT31;56185;48.526;9.044;2023-08-06T07:29:21;15.17;82.94
69084;SHT31;56185;48.526;9.044;2023-08-06T07:31:46;15.28;84.21
69084;SHT31;56185;48.526;9.044;2023-08-06T07:34:11;15.26;83.62
69084;SHT31;56185;48.526;9.044;2023-08-06T07:36:37;15.23;83.32
69084;SHT31;56185;48.526;9.044;2023-08-06T07:39:03;15.27;82.99
69084;SHT31;56185;48.526;9.044;2023-08-06T07:41:28;15.23;82.13
69084;SHT31;56185;48.526;9.044;2023-08-06T07:43:53;15.28;83.00
69084;SHT31;56185;48.526;9.044;2023-08-06T07:46:18;15.34;83.15
69084;SHT31;56185;48.526;9.044;2023-08-06T07:48:44;15.28;82.85
69084;SHT31;56185;48.526;9.044;2023-08-06T07:51:09;15.30;83.87
69084;SHT31;56185;48.526;9.044;2023-08-06T07:53:34;15.22;83.87
69084;SHT31;56185;48.526;9.044;2023-08-06T07:55:59;15.33;82.62
69084;SHT31;56185;48.526;9.044;2023-08-06T07:58:25;15.19;80.68
69084;SHT31;56185;48.526;9.044;2023-08-06T08:00:50;15.30;83.11
69084;SHT31;56185;48.526;9.044;2023-08-06T08:03:16;15.33;81.33
69084;SHT31;56185;48.526;9.044;2023-08-06T08:05:42;15.41;81.25
69084;SHT31;56185;48.526;9.044;2023-08-06T08:08:08;15.23;82.29
69084;SHT31;56185;48.526;9.044;2023-08-06T08:10:34;15.20;81.59
69084;SHT31;56185;48.526;9.044;2023-08-06T08:13:01;15.28;81.90
69084;SHT31;56185;48.526;9.044;2023-08-06T08:15:28;15.17;81.91
69084;SHT31;56185;48.526;9.044;2023-08-06T08:17:54;15.20;81.63
69084;SHT31;56185;48.526;9.044;2023-08-06T08:20:20;15.16;81.39
69084;SHT31;56185;48.526;9.044;2023-08-06T08:22:45;15.08;82.69
69084;SHT31;56185;48.526;9.044;2023-08-06T08:25:11;14.99;82.44
69084;SHT31;56185;48.526;9.044;2023-08-06T08:27:36;15.06;83.01
69084;SHT31;56185;48.526;9.044;2023-08-06T08:30:01;15.07;82.09
69084;SHT31;56185;48.526;9.044;2023-08-06T08:32:26;15.11;82.43
69084;SHT31;56185;48.526;9.044;2023-08-06T08:34:52;15.22;83.07
69084;SHT31;56185;48.526;9.044;2023-08-06T08:37:17;15.27;82.92
69084;SHT31;56185;48.526;9.044;2023-08-06T08:39:42;15.38;82.76
69084;SHT31;56185;48.526;9.044;2023-08-06T08:42:09;15.38;81.23
69084;SHT31;56185;48.526;9.044;2023-08-06T08:44:36;15.28;79.83
69084;SHT31;56185;48.526;9.044;2023-08-06T08:47:02;15.41;81.77
69084;SHT31;56185;48.526;9.044;2023-08-06T08:49:27;15.43;82.41
69084;SHT31;56185;48.526;9.044;2023-08-06T08:51:54;15.33;81.66
69084;SHT31;56185;48.526;9.044;2023-08-06T08:54:23;15.43;81.70
69084;SHT31;56185;48.526;9.044;2023-08-06T08:56:49;15.45;82.18
69084;SHT31;56185;48.526;9.044;2023-08-06T08:59:14;15.52;81.76
69084;SHT31;56185;48.526;9.044;2023-08-06T09:01:40;15.45;81.95
69084;SHT31;56185;48.526;9.044;2023-08-06T09:04:07;15.44;81.42
69084;SHT31;56185;48.526;9.044;2023-08-06T09:06:34;15.51;82.34
69084;SHT31;56185;48.526;9.044;2023-08-06T09:09:08;15.45;82.41
69084;SHT31;56185;48.526;9.044;2023-08-06T09:11:37;15.44;82.35
69084;SHT31;56185;48.526;9.044;2023-08-06T09:14:08;15.61;82.26
69084;SHT31;56185;48.526;9.044;2023-08-06T09:16:37;15.59;81.78
69084;SHT31;56185;48.526;9.044;2023-08-06T09:19:09;15.75;81.82
69084;SHT31;56185;48.526;9.044;2023-08-06T09:21:39;15.92;82.21
69084;SHT31;56185;48.526;9.044;2023-08-06T09:24:13;15.99;79.98
69084;SHT31;56185;48.526;9.044;2023-08-06T09:26:43;16.01;79.94
69084;SHT31;56185;48.526;9.044;2023-08-06T09:29:10;16.16;80.28
69084;SHT31;56185;48.526;9.044;2023-08-06T09:31:42;16.17;79.78
69084;SHT31;56185;48.526;9.044;2023-08-06T09:34:15;16.16;80.05
69084;SHT31;56185;48.526;9.044;2023-08-06T09:36:46;16.10;80.57
69084;SHT31;56185;48.526;9.044;2023-08-06T09:39:16;16.03;81.49
69084;SHT31;56185;48.526;9.044;2023-08-06T09:41:42;15.92;81.71
69084;SHT31;56185;48.526;9.044;2023-08-06T09:44:18;15.85;81.46
69084;SHT31;56185;48.526;9.044;2023-08-06T09:49:17;15.79;82.65
69084;SHT31;56185;48.526;9.044;2023-08-06T09:51:42;15.85;82.97
69084;SHT31;56185;48.526;9.044;2023-08-06T09:54:08;15.81;83.68
69084;SHT31;56185;48.526;9.044;2023-08-06T09:56:34;15.78;83.50
69084;SHT31;56185;48.526;9.044;2023-08-06T09:59:01;15.69;83.27
69084;SHT31;56185;48.526;9.044;2023-08-06T10:01:27;15.57;83.28
69084;SHT31;56185;48.526;9.044;2023-08-06T10:03:53;15.40;82.73
69084;SHT31;56185;48.526;9.044;2023-08-06T10:06:20;15.41;83.94
69084;SHT31;56185;48.526;9.044;2023-08-06T10:08:45;15.35;84.03
69084;SHT31;56185;48.526;9.044;2023-08-06T10:11:11;15.34;84.86
69084;SHT31;56185;48.526;9.044;2023-08-06T10:13:37;15.19;84.15
69084;SHT31;56185;48.526;9.044;2023-08-06T10:16:03;15.19;84.13
69084;SHT31;56185;48.526;9.044;2023-08-06T10:18:30;15.13;84.76
69084;SHT31;56185;48.526;9.044;2023-08-06T10:20:55;15.26;85.38
69084;SHT31;56185;48.526;9.044;2023-08-06T10:23:33;15.34;85.70
69084;SHT31;56185;48.526;9.044;2023-08-06T10:25:58;15.48;84.62
69084;SHT31;56185;48.526;9.044;2023-08-06T10:28:34;15.45;85.30
69084;SHT31;56185;48.526;9.044;2023-08-06T10:30:59;15.50;83.66
69084;SHT31;56185;48.526;9.044;2023-08-06T10:33:40;15.43;84.44
69084;SHT31;56185;48.526;9.044;2023-08-06T10:36:08;15.43;84.62
69084;SHT31;56185;48.526;9.044;2023-08-06T10:38:33;15.44;84.83
69084;SHT31;56185;48.526;9.044;2023-08-06T10:43:35;15.44;84.75
69084;SHT31;56185;48.526;9.044;2023-08-06T10:46:09;15.48;85.44
69084;SHT31;56185;48.526;9.044;2023-08-06T10:48:36;15.50;85.55
69084;SHT31;56185;48.526;9.044;2023-08-06T10:51:02;15.57;84.74
69084;SHT31;56185;48.526;9.044;2023-08-06T10:53:28;15.62;86.04
69084;SHT31;56185;48.526;9.044;2023-08-06T10:55:54;15.64;85.95
69084;SHT31;56185;48.526;9.044;2023-08-06T10:58:19;15.57;85.79
69084;SHT31;56185;48.526;9.044;2023-08-06T11:00:45;15.66;86.04
69084;SHT31;56185;48.526;9.044;2023-08-06T11:03:11;15.65;85.83
69084;SHT31;56185;48.526;9.044;2023-08-06T11:05:36;15.57;85.60
69084;SHT31;56185;48.526;9.044;2023-08-06T11:08:02;15.61;85.77
69084;SHT31;56185;48.526;9.044;2023-08-06T11:10:27;15.68;85.50
69084;SHT31;56185;48.526;9.044;2023-08-06T11:12:52;15.65;85.08
69084;SHT31;56185;48.526;9.044;2023-08-06T11:15:20;15.57;85.52
69084;SHT31;56185;48.526;9.044;2023-08-06T11:17:45;15.57;86.05
69084;SHT31;56185;48.526;9.044;2023-08-06T11:20:11;15.45;85.65
69084;SHT31;56185;48.526;9.044;2023-08-06T11:22:37;15.43;86.14
69084;SHT31;56185;48.526;9.044;2023-08-06T11:25:02;15.55;87.44
69084;SHT31;56185;48.526;9.044;2023-08-06T11:27:28;15.58;87.61
69084;SHT31;56185;48.526;9.044;2023-08-06T11:29:53;15.54;87.77
69084;SHT31;56185;48.526;9.044;2023-08-06T11:32:19;15.55;87.34
69084;SHT31;56185;48.526;9.044;2023-08-06T11:34:44;15.54;86.66
69084;SHT31;56185;48.526;9.044;2023-08-06T11:37:09;15.48;86.16
69084;SHT31;56185;48.526;9.044;2023-08-06T11:39:36;15.54;86.05
69084;SHT31;56185;48.526;9.044;2023-08-06T11:42:07;15.54;87.98
69084;SHT31;56185;48.526;9.044;2023-08-06T11:44:35;15.61;87.58
69084;SHT31;56185;48.526;9.044;2023-08-06T11:47:02;15.68;87.23
69084;SHT31;56185;48.526;9.044;2023-08-06T11:49:48;15.81;87.53
69084;SHT31;56185;48.526;9.044;2023-08-06T11:52:22;15.86;86.84
69084;SHT31;56185;48.526;9.044;2023-08-06T11:55:02;15.82;87.09
69084;SHT31;56185;48.526;9.044;2023-08-06T11:57:31;15.92;84.03
69084;SHT31;56185;48.526;9.044;2023-08-06T11:59:56;15.92;85.73
69084;SHT31;56185;48.526;9.044;2023-08-06T12:02:21;15.93;85.81
69084;SHT31;56185;48.526;9.044;2023-08-06T12:05:00;15.82;83.48
69084;SHT31;56185;48.526;9.044;2023-08-06T12:07:29;15.74;84.15
69084;SHT31;56185;48.526;9.044;2023-08-06T12:09:54;15.69;84.81
69084;SHT31;56185;48.526;9.044;2023-08-06T12:12:19;15.50;81.20
69084;SHT31;56185;48.526;9.044;2023-08-06T12:14:44;15.45;81.62
69084;SHT31;56185;48.526;9.044;2023-08-06T12:17:10;15.44;81.76
69084;SHT31;56185;48.526;9.044;2023-08-06T12:19:36;15.50;83.85
69084;SHT31;56185;48.526;9.044;2023-08-06T12:22:01;15.40;83.38
69084;SHT31;56185;48.526;9.044;2023-08-06T12:24:26;15.48;83.71
69084;SHT31;56185;48.526;9.044;2023-08-06T12:26:51;15.44;82.97
69084;SHT31;56185;48.526;9.044;2023-08-06T12:29:17;15.44;81.44
69084;SHT31;56185;48.526;9.044;2023-08-06T12:31:42;15.45;79.22
69084;SHT31;56185;48.526;9.044;2023-08-06T12:34:07;15.52;81.59
69084;SHT31;56185;48.526;9.044;2023-08-06T12:36:32;15.37;80.49
69084;SHT31;56185;48.526;9.044;2023-08-06T12:38:58;15.48;80.83
69084;SHT31;56185;48.526;9.044;2023-08-06T12:41:23;15.55;82.20
69084;SHT31;56185;48.526;9.044;2023-08-06T12:43:48;15.65;81.99
69084;SHT31;56185;48.526;9.044;2023-08-06T12:46:13;15.69;82.44
69084;SHT31;56185;48.526;9.044;2023-08-06T12:48:39;15.59;80.81
69084;SHT31;56185;48.526;9.044;2023-08-06T12:51:04;15.52;79.32
69084;SHT31;56185;48.526;9.044;2023-08-06T12:53:29;15.51;80.94
69084;SHT31;56185;48.526;9.044;2023-08-06T12:55:54;15.52;80.14
69084;SHT31;56185;48.526;9.044;2023-08-06T12:58:20;15.41;79.06
69084;SHT31;56185;48.526;9.044;2023-08-06T13:00:45;15.52;80.88
69084;SHT31;56185;48.526;9.044;2023-08-06T13:03:10;15.44;78.33
69084;SHT31;56185;48.526;9.044;2023-08-06T13:05:35;15.54;79.02
69084;SHT31;56185;48.526;9.044;2023-08-06T13:08:01;15.58;78.24
69084;SHT31;56185;48.526;9.044;2023-08-06T13:10:26;15.65;78.93
69084;SHT31;56185;48.526;9.044;2023-08-06T13:12:51;15.74;78.50
69084;SHT31;56185;48.526;9.044;2023-08-06T13:15:16;15.88;79.48
69084;SHT31;56185;48.526;9.044;2023-08-06T13:17:42;15.99;77.12
69084;SHT31;56185;48.526;9.044;2023-08-06T13:20:07;16.14;73.04
69084;SHT31;56185;48.526;9.044;2023-08-06T13:22:32;16.17;76.85
69084;SHT31;56185;48.526;9.044;2023-08-06T13:24:58;16.27;73.62
69084;SHT31;56185;48.526;9.044;2023-08-06T13:27:23;16.40;74.84
69084;SHT31;56185;48.526;9.044;2023-08-06T13:29:48;16.47;74.82
69084;SHT31;56185;48.526;9.044;2023-08-06T13:32:13;16.40;74.32
69084;SHT31;56185;48.526;9.044;2023-08-06T13:34:38;16.43;74.57
69084;SHT31;56185;48.526;9.044;2023-08-06T13:37:04;16.30;73.59
69084;SHT31;56185;48.526;9.044;2023-08-06T13:39:29;16.19;74.97
69084;SHT31;56185;48.526;9.044;2023-08-06T13:41:57;16.27;76.10
69084;SHT31;56185;48.526;9.044;2023-08-06T13:44:22;16.16;75.32
69084;SHT31;56185;48.526;9.044;2023-08-06T13:46:48;16.14;75.46
69084;SHT31;56185;48.526;9.044;2023-08-06T13:49:13;16.10;75.69
69084;SHT31;56185;48.526;9.044;2023-08-06T13:51:38;16.09;75.51
69084;SHT31;56185;48.526;9.044;2023-08-06T13:54:03;16.14;75.52
69084;SHT31;56185;48.526;9.044;2023-08-06T13:56:29;16.16;75.81
69084;SHT31;56185;48.526;9.044;2023-08-06T13:58:55;16.26;75.93
69084;SHT31;56185;48.526;9.044;2023-08-06T14:01:20;16.29;75.12
69084;SHT31;56185;48.526;9.044;2023-08-06T14:03:46;16.50;75.66
69084;SHT31;56185;48.526;9.044;2023-08-06T14:06:11;16.64;74.80
69084;SHT31;56185;48.526;9.044;2023-08-06T14:08:36;16.60;73.34
69084;SHT31;56185;48.526;9.044;2023-08-06T14:11:01;16.74;73.69
69084;SHT31;56185;48.526;9.044;2023-08-06T14:13:27;16.81;73.38
69084;SHT31;56185;48.526;9.044;2023-08-06T14:15:58;16.87;72.77
69084;SHT31;56185;48.526;9.044;2023-08-06T14:18:24;16.91;72.67
69084;SHT31;56185;48.526;9.044;2023-08-06T14:20:49;16.92;72.98
69084;SHT31;56185;48.526;9.044;2023-08-06T14:23:23;16.80;71.71
69084;SHT31;56185;48.526;9.044;2023-08-06T14:25:48;16.63;69.92
69084;SHT31;56185;48.526;9.044;2023-08-06T14:28:14;16.43;76.26
69084;SHT31;56185;48.526;9.044;2023-08-06T14:30:39;16.30;78.60
69084;SHT31;56185;48.526;9.044;2023-08-06T14:33:04;16.27;79.58
69084;SHT31;56185;48.526;9.044;2023-08-06T14:35:29;16.08;81.15
69084;SHT31;56185;48.526;9.044;2023-08-06T14:37:55;15.92;79.83
69084;SHT31;56185;48.526;9.044;2023-08-06T14:40:20;15.92;80.96
69084;SHT31;56185;48.526;9.044;2023-08-06T14:42:45;15.99;81.04
69084;SHT31;56185;48.526;9.044;2023-08-06T14:45:10;15.83;80.65
69084;SHT31;56185;48.526;9.044;2023-08-06T14:47:36;15.65;79.97
69084;SHT31;56185;48.526;9.044;2023-08-06T14:50:01;15.75;79.98
69084;SHT31;56185;48.526;9.044;2023-08-06T14:52:26;15.86;80.23
69084;SHT31;56185;48.526;9.044;2023-08-06T14:54:51;16.12;81.50
69084;SHT31;56185;48.526;9.044;2023-08-06T14:57:19;16.03;76.97
69084;SHT31;56185;48.526;9.044;2023-08-06T14:59:45;15.99;76.57
69084;SHT31;56185;48.526;9.044;2023-08-06T15:02:10;15.91;75.83
69084;SHT31;56185;48.526;9.044;2023-08-06T15:04:35;15.82;76.40
69084;SHT31;56185;48.526;9.044;2023-08-06T15:07:00;15.75;75.03
69084;SHT31;56185;48.526;9.044;2023-08-06T15:09:26;15.81;76.70
69084;SHT31;56185;48.526;9.044;2023-08-06T15:11:51;15.74;75.54
69084;SHT31;56185;48.526;9.044;2023-08-06T15:14:16;15.72;76.14
69084;SHT31;56185;48.526;9.044;2023-08-06T15:16:42;15.86;76.94
69084;SHT31;56185;48.526;9.044;2023-08-06T15:19:07;15.77;74.16
69084;SHT31;56185;48.526;9.044;2023-08-06T15:21:32;15.92;75.96
69084;SHT31;56185;48.526;9.044;2023-08-06T15:23:58;15.85;76.08
69084;SHT31;56185;48.526;9.044;2023-08-06T15:26:23;15.81;74.39
69084;SHT31;56185;48.526;9.044;2023-08-06T15:28:48;15.89;74.43